Time;durP1;ratioP1;P1;durP2;ratioP2;P2;SDS_P1;SDS_P2;PMS_P1;PMS_P2;Temp;Humidity;BMP_temperature;BMP_pressure;BME280_temperature;BME280_humidity;BME280_pressure;Samples;Min_cycle;Max_cycle;Signal;HPM_P1;HPM_P2
2021/01/28 00:00:43;;;;;;;32.83;20.55;;;;;;;2.12;100.00;100477.78;4979311;28;20053;-74
2021/01/28 00:03:28;;;;;;;34.83;21.13;;;;;;;2.07;100.00;100477.72;4977742;28;20033;-72
2021/01/28 02:06:54;;;;;;;26.67;17.20;;;;;;;1.16;100.00;100504.78;5013217;23;20050;-73
2021/01/28 02:09:42;;;;;;;27.95;16.88;;;;;;;1.30;100.00;100511.91;4976351;28;20070;-73
2021/01/28 02:12:27;;;;;;;28.65;18.33;;;;;;;1.70;100.00;100509.09;4975961;28;20039;-73
2021/01/28 02:15:14;;;;;;;36.38;21.02;;;;;;;2.02;100.00;100513.00;4976519;28;20034;-73
2021/01/28 02:18:00;;;;;;;41.28;22.65;;;;;;;1.51;100.00;100519.97;4976107;28;20031;-74
2021/01/28 02:21:00;;;;;;;29.88;18.38;;;;;;;1.66;100.00;100524.50;4975206;28;20469;-73
2021/01/28 02:23:54;;;;;;;27.33;17.27;;;;;;;1.97;100.00;100517.19;4963242;28;20070;-73
2021/01/28 02:26:46;;;;;;;26.73;16.95;;;;;;;2.10;100.00;100529.47;4975206;28;20019;-73
2021/01/28 02:29:32;;;;;;;27.80;16.70;;;;;;;1.82;100.00;100529.91;4976184;28;20023;-73
2021/01/28 02:32:18;;;;;;;27.88;17.45;;;;;;;1.84;100.00;100528.22;4975952;28;20046;-73
2021/01/28 02:35:04;;;;;;;29.65;17.85;;;;;;;1.70;100.00;100523.69;4975807;28;20042;-73
2021/01/28 02:37:50;;;;;;;27.45;16.83;;;;;;;1.86;100.00;100533.41;4975629;28;20031;-73
2021/01/28 02:40:38;;;;;;;28.20;16.27;;;;;;;1.72;100.00;100522.03;4976039;28;20034;-72
2021/01/28 02:43:24;;;;;;;28.60;17.20;;;;;;;1.82;100.00;100534.22;4976327;28;20034;-72
2021/01/28 02:46:14;;;;;;;24.83;15.55;;;;;;;1.63;100.00;100529.59;4975266;28;20475;-73
2021/01/28 02:49:00;;;;;;;28.23;17.33;;;;;;;1.75;100.00;100527.22;4975398;28;20110;-73
2021/01/28 02:51:46;;;;;;;27.77;17.40;;;;;;;1.23;100.00;100529.81;4975531;28;20047;-72
2021/01/28 02:54:46;;;;;;;26.08;15.90;;;;;;;1.53;100.00;100536.34;4977050;28;20030;-73
2021/01/28 02:57:31;;;;;;;27.55;15.82;;;;;;;1.56;100.00;100530.38;4975643;28;20474;-73
2021/01/28 03:00:21;;;;;;;26.23;15.90;;;;;;;1.69;100.00;100535.72;4975961;28;20031;-73
2021/01/28 03:03:09;;;;;;;25.73;15.73;;;;;;;1.67;100.00;100532.28;4962365;28;20042;-73
2021/01/28 03:05:55;;;;;;;27.58;16.15;;;;;;;1.47;100.00;100536.25;4975084;28;20117;-72
2021/01/28 03:08:41;;;;;;;28.02;15.88;;;;;;;1.28;100.00;100536.78;4975364;28;20482;-74
2021/01/28 03:11:28;;;;;;;26.30;16.27;;;;;;;1.46;100.00;100531.06;4975647;28;20041;-73
2021/01/28 03:14:13;;;;;;;27.63;16.77;;;;;;;0.99;100.00;100538.03;4977253;28;20535;-72
2021/01/28 03:16:59;;;;;;;27.83;17.02;;;;;;;1.04;100.00;100535.53;4979452;28;20027;-74
2021/01/28 03:19:45;;;;;;;29.38;17.67;;;;;;;1.01;100.00;100525.16;4979352;28;20034;-73
2021/01/28 03:22:31;;;;;;;28.20;17.20;;;;;;;1.13;100.00;100527.94;4978909;28;20027;-72
2021/01/28 03:25:19;;;;;;;25.23;16.15;;;;;;;1.37;100.00;100529.19;4979452;28;20023;-74
2021/01/28 03:28:06;;;;;;;27.10;16.30;;;;;;;1.46;100.00;100531.06;4979138;28;20514;-73
2021/01/28 03:30:52;;;;;;;25.17;15.52;;;;;;;1.54;100.00;100526.91;4964530;28;20054;-73
2021/01/28 03:33:38;;;;;;;27.38;16.00;;;;;;;1.26;100.00;100529.88;4978898;28;20031;-73
2021/01/28 03:36:23;;;;;;;27.88;16.17;;;;;;;1.11;100.00;100519.28;4965555;28;20118;-73
2021/01/28 03:39:09;;;;;;;26.33;15.10;;;;;;;1.38;100.00;100520.63;4979167;28;20467;-73
2021/01/28 03:41:55;;;;;;;25.42;15.70;;;;;;;1.15;100.00;100521.97;4965576;28;20033;-73
2021/01/28 03:44:41;;;;;;;26.75;16.10;;;;;;;1.16;100.00;100528.00;4978018;28;20058;-73
2021/01/28 03:47:27;;;;;;;29.48;15.80;;;;;;;1.34;100.00;100526.59;4978611;28;20131;-73
2021/01/28 03:50:18;;;;;;;23.13;15.10;;;;;;;1.27;100.00;100526.44;4965164;28;20030;-73
2021/01/28 03:53:05;;;;;;;23.52;14.60;;;;;;;1.29;100.00;100519.63;4978806;28;20038;-72
2021/01/28 03:55:51;;;;;;;23.80;14.95;;;;;;;1.35;100.00;100520.59;4965833;28;20030;-72
2021/01/28 03:58:37;;;;;;;23.33;14.25;;;;;;;1.30;100.00;100516.19;4977923;28;20026;-73
2021/01/28 04:01:22;;;;;;;27.98;14.50;;;;;;;1.12;100.00;100509.00;4979294;28;20482;-72
2021/01/28 04:04:08;;;;;;;26.27;14.73;;;;;;;1.04;100.00;100513.16;4977794;28;20451;-72
2021/01/28 04:06:54;;;;;;;24.67;15.05;;;;;;;1.19;100.00;100508.28;4978230;28;20081;-73
2021/01/28 04:09:40;;;;;;;24.42;14.63;;;;;;;1.35;100.00;100515.41;4964603;28;20034;-72
2021/01/28 04:12:26;;;;;;;23.27;14.52;;;;;;;1.08;100.00;100511.53;4978368;28;20031;-72
2021/01/28 04:15:12;;;;;;;26.95;15.43;;;;;;;1.21;100.00;100526.38;4977499;28;20065;-72
2021/01/28 04:17:59;;;;;;;25.48;14.15;;;;;;;1.14;100.00;100520.22;4977866;28;20062;-72
2021/01/28 04:20:45;;;;;;;26.27;15.73;;;;;;;1.13;100.00;100521.09;4978103;28;20058;-72
2021/01/28 04:23:30;;;;;;;24.35;14.45;;;;;;;1.29;100.00;100517.88;4978777;28;20463;-73
2021/01/28 04:26:16;;;;;;;25.58;14.60;;;;;;;1.46;100.00;100524.22;4977758;28;20027;-73
2021/01/28 04:29:04;;;;;;;25.90;14.70;;;;;;;1.00;100.00;100519.13;4978280;28;20019;-72
2021/01/28 04:31:50;;;;;;;23.13;14.50;;;;;;;1.20;100.00;100522.06;4977625;28;20106;-72
2021/01/28 04:34:36;;;;;;;24.73;14.43;;;;;;;1.19;100.00;100528.03;4964273;28;20058;-73
2021/01/28 04:37:22;;;;;;;23.80;13.90;;;;;;;1.45;100.00;100526.75;4978607;28;20460;-73
2021/01/28 04:40:29;;;;;;;25.65;14.68;;;;;;;1.23;100.00;100533.28;4978206;28;20039;-73
2021/01/28 04:43:21;;;;;;;25.85;16.15;;;;;;;1.21;100.00;100539.25;4977133;28;20034;-74
2021/01/28 04:46:11;;;;;;;24.00;14.30;;;;;;;1.17;100.00;100540.94;4963464;28;20035;-72
2021/01/28 04:48:59;;;;;;;24.02;14.68;;;;;;;1.01;100.00;100536.34;4963727;28;20411;-72
2021/01/28 04:51:46;;;;;;;26.75;15.55;;;;;;;1.10;100.00;100538.19;4977434;28;20022;-72
2021/01/28 04:54:35;;;;;;;25.35;15.27;;;;;;;1.15;100.00;100547.75;4965264;28;20041;-73
2021/01/28 04:57:22;;;;;;;25.42;15.45;;;;;;;1.11;100.00;100539.94;4977368;28;20479;-73
2021/01/28 05:00:08;;;;;;;24.58;14.15;;;;;;;0.77;100.00;100543.63;4965434;28;20034;-73
2021/01/28 05:03:03;;;;;;;22.95;14.48;;;;;;;0.87;100.00;100544.66;4976522;28;20023;-72
2021/01/28 07:09:52;;;;;;;30.75;18.17;;;;;;;1.57;100.00;100597.50;4958417;29;20051;-72
2021/01/28 07:12:42;;;;;;;30.27;18.45;;;;;;;1.76;100.00;100602.13;4946928;29;20424;-72
2021/01/28 07:15:29;;;;;;;31.15;18.90;;;;;;;1.46;100.00;100605.91;4946854;28;20023;-73
2021/01/28 07:18:29;;;;;;;29.88;18.55;;;;;;;1.93;100.00;100603.25;4947613;28;20042;-72
2021/01/28 07:21:33;;;;;;;29.80;18.85;;;;;;;1.88;100.00;100611.78;4945211;28;20034;-73
2021/01/28 07:24:30;;;;;;;34.75;19.17;;;;;;;1.92;100.00;100611.84;4962634;29;20098;-72
2021/01/28 07:27:20;;;;;;;32.90;19.58;;;;;;;2.18;100.00;100617.41;4959513;29;20024;-73
2021/01/28 07:30:06;;;;;;;30.67;18.33;;;;;;;2.36;100.00;100628.00;4961010;28;20141;-73
2021/01/28 07:32:53;;;;;;;31.98;18.77;;;;;;;1.98;100.00;100621.41;4959350;28;20131;-73
2021/01/28 09:32:51;;;;;;;37.33;23.33;;;;;;;3.44;100.00;100675.88;5676853;23;20055;-73
2021/01/28 09:36:10;;;;;;;56.60;30.23;;;;;;;3.01;100.00;100671.97;4978093;28;20042;-71
2021/01/28 09:39:11;;;;;;;39.22;24.40;;;;;;;3.27;100.00;100675.72;4976450;28;20038;-73
2021/01/28 09:42:23;;;;;;;39.10;23.85;;;;;;;3.57;100.00;100668.25;4977414;28;20109;-73
2021/01/28 09:45:11;;;;;;;38.35;23.15;;;;;;;3.82;100.00;100659.00;4975788;28;20026;-73
2021/01/28 09:47:58;;;;;;;36.50;23.40;;;;;;;3.53;100.00;100658.72;4976644;28;20463;-73
2021/01/28 09:50:45;;;;;;;37.58;22.60;;;;;;;3.67;100.00;100654.56;4975857;28;20469;-74
2021/01/28 09:53:31;;;;;;;40.05;24.10;;;;;;;3.77;100.00;100652.88;4976131;28;20105;-73
2021/01/28 09:56:17;;;;;;;42.70;26.17;;;;;;;4.73;100.00;100649.25;4962857;28;20073;-73
2021/01/28 09:59:02;;;;;;;35.50;23.27;;;;;;;4.80;100.00;100645.84;4963151;28;20030;-73
2021/01/28 10:01:49;;;;;;;36.08;23.63;;;;;;;4.57;100.00;100651.75;4976683;28;20018;-73
2021/01/28 10:04:35;;;;;;;34.55;22.42;;;;;;;4.03;100.00;100639.28;4976908;28;20022;-73
2021/01/28 10:07:23;;;;;;;37.42;23.20;;;;;;;3.92;100.00;100647.84;4963250;28;20050;-74
2021/01/28 10:10:09;;;;;;;35.97;23.58;;;;;;;4.16;100.00;100645.44;4976527;28;20041;-74
2021/01/28 10:12:58;;;;;;;33.55;22.73;;;;;;;3.91;100.00;100649.56;4976024;28;20022;-74
2021/01/28 10:15:47;;;;;;;35.45;23.08;;;;;;;3.83;100.00;100646.06;4975058;28;20105;-74
2021/01/28 10:18:33;;;;;;;38.55;24.88;;;;;;;4.07;100.00;100646.22;4976903;28;20027;-74
2021/01/28 10:21:19;;;;;;;42.38;26.83;;;;;;;4.20;100.00;100647.19;4975449;28;20089;-74
2021/01/28 10:24:05;;;;;;;35.83;22.90;;;;;;;4.14;100.00;100649.75;4975790;28;20352;-73
2021/01/28 10:26:51;;;;;;;37.92;24.17;;;;;;;4.17;100.00;100639.38;4975800;28;20031;-73
2021/01/28 10:29:37;;;;;;;36.75;24.20;;;;;;;3.75;100.00;100639.06;4976085;28;20092;-74
2021/01/28 10:32:23;;;;;;;36.95;24.23;;;;;;;4.15;100.00;100629.00;4976147;28;20078;-73
2021/01/28 10:35:09;;;;;;;36.95;24.33;;;;;;;4.34;100.00;100630.88;4976028;28;20019;-73
2021/01/28 10:37:56;;;;;;;39.42;24.33;;;;;;;3.56;100.00;100625.09;4962859;28;20427;-74
2021/01/28 10:40:42;;;;;;;39.03;26.20;;;;;;;3.75;100.00;100624.41;4974751;28;20038;-73
2021/01/28 10:43:28;;;;;;;41.65;25.30;;;;;;;4.37;100.00;100624.81;4962579;28;20081;-73
2021/01/28 10:46:13;;;;;;;39.90;24.13;;;;;;;3.86;100.00;100621.91;4976083;28;20026;-74
2021/01/28 10:48:59;;;;;;;40.00;23.88;;;;;;;3.22;100.00;100617.00;4976501;28;20027;-74
2021/01/28 10:51:47;;;;;;;36.90;23.23;;;;;;;3.71;100.00;100625.25;4974845;28;20464;-74
2021/01/28 10:54:33;;;;;;;40.00;24.48;;;;;;;4.07;100.00;100628.09;4975523;28;20115;-75
2021/01/28 10:57:19;;;;;;;36.97;23.80;;;;;;;3.99;100.00;100621.97;4974682;28;20030;-73
2021/01/28 11:00:06;;;;;;;38.35;24.45;;;;;;;4.28;100.00;100629.97;4963144;28;20029;-74
2021/01/28 11:02:52;;;;;;;38.63;24.67;;;;;;;4.12;100.00;100623.81;4961587;28;20023;-74
2021/01/28 11:05:37;;;;;;;37.63;24.35;;;;;;;4.53;100.00;100622.34;4976286;28;20359;-73
2021/01/28 11:08:23;;;;;;;38.05;24.17;;;;;;;3.91;100.00;100620.19;4975354;28;20026;-73
2021/01/28 11:13:40;;;;;;;40.25;25.45;;;;;;;4.28;100.00;100620.47;4982672;23;20090;-74
2021/01/28 11:16:28;;;;;;;40.55;25.70;;;;;;;3.77;100.00;100614.03;4960943;28;20030;-73
2021/01/28 11:19:14;;;;;;;38.15;24.98;;;;;;;4.33;100.00;100611.00;4962742;28;20035;-72
2021/01/28 11:22:00;;;;;;;38.47;25.17;;;;;;;4.39;100.00;100612.75;4961615;28;20062;-72
2021/01/28 11:24:46;;;;;;;37.08;24.60;;;;;;;4.25;100.00;100614.38;4975506;28;20032;-74
2021/01/28 11:27:32;;;;;;;38.88;24.90;;;;;;;4.75;100.00;100611.19;4974752;28;20026;-73
2021/01/28 11:30:21;;;;;;;37.53;24.75;;;;;;;4.69;100.00;100610.28;4975347;28;20031;-72
2021/01/28 11:33:12;;;;;;;38.67;24.98;;;;;;;4.48;100.00;100615.38;4975849;28;20039;-74
2021/01/28 11:36:07;;;;;;;40.80;26.58;;;;;;;4.36;100.00;100604.94;4965954;28;20034;-75
2021/01/28 11:38:57;;;;;;;37.58;24.23;;;;;;;4.07;100.00;100609.94;4979092;28;20035;-75
2021/01/28 11:41:49;;;;;;;39.10;24.45;;;;;;;3.77;100.00;100609.72;4980809;28;20106;-74
2021/01/28 11:48:01;;;;;;;39.45;26.02;;;;;;;4.10;100.00;100609.97;4980877;28;20115;-73
2021/01/28 11:51:11;;;;;;;38.30;25.33;;;;;;;3.84;100.00;100608.94;4984519;28;20030;-74
2021/01/28 11:53:56;;;;;;;41.85;25.63;;;;;;;3.22;100.00;100610.06;4968106;28;20030;-74
2021/01/28 11:56:42;;;;;;;45.63;27.15;;;;;;;3.85;100.00;100608.06;4978570;28;20086;-74
2021/01/28 11:59:28;;;;;;;41.42;26.00;;;;;;;4.28;100.00;100607.50;4978370;28;20550;-72
2021/01/28 12:02:14;;;;;;;39.05;24.75;;;;;;;4.07;100.00;100614.28;4965606;28;20337;-72
2021/01/28 12:04:59;;;;;;;41.05;26.45;;;;;;;4.07;100.00;100601.31;4978674;28;20085;-72
2021/01/28 12:07:45;;;;;;;39.28;24.75;;;;;;;4.00;100.00;100602.13;4978750;28;20023;-72
2021/01/28 12:10:31;;;;;;;40.17;25.60;;;;;;;3.90;100.00;100596.00;4978593;28;20027;-72
2021/01/28 12:13:17;;;;;;;41.60;26.20;;;;;;;4.06;100.00;100599.59;4978300;28;20061;-73
2021/01/28 12:16:05;;;;;;;40.40;25.38;;;;;;;3.92;100.00;100598.59;4965723;28;20022;-73
2021/01/28 12:18:51;;;;;;;42.13;26.95;;;;;;;3.43;100.00;100591.31;4966025;28;20054;-72
2021/01/28 12:21:37;;;;;;;45.83;28.67;;;;;;;3.72;100.00;100595.88;4977763;28;20049;-73
2021/01/28 12:24:23;;;;;;;51.13;30.00;;;;;;;3.22;100.00;100604.91;4977979;28;20026;-72
2021/01/28 12:27:11;;;;;;;44.47;27.65;;;;;;;3.69;100.00;100600.16;4977213;28;20026;-72
2021/01/28 12:29:58;;;;;;;43.17;26.90;;;;;;;3.53;100.00;100604.34;4978380;28;20034;-72
2021/01/28 12:32:44;;;;;;;48.50;29.98;;;;;;;3.72;100.00;100606.25;4977622;28;20069;-73
2021/01/28 12:35:30;;;;;;;48.13;30.55;;;;;;;3.37;100.00;100599.00;4978023;28;20423;-74
2021/01/28 12:38:16;;;;;;;44.88;30.30;;;;;;;3.22;100.00;100610.06;4977301;28;20038;-73
2021/01/28 12:41:02;;;;;;;40.22;26.77;;;;;;;3.67;100.00;100613.13;4978376;28;20090;-73
2021/01/28 12:43:48;;;;;;;42.08;26.60;;;;;;;3.93;100.00;100605.50;4977931;28;20031;-72
2021/01/28 12:46:34;;;;;;;46.08;30.27;;;;;;;3.87;100.00;100605.50;4978274;28;20023;-73
2021/01/28 12:49:20;;;;;;;40.83;27.38;;;;;;;3.98;100.00;100601.25;4979955;28;20046;-72
2021/01/28 12:52:06;;;;;;;40.40;25.70;;;;;;;3.95;100.00;100609.00;4976924;28;20030;-73
2021/01/28 12:54:52;;;;;;;41.20;25.95;;;;;;;3.36;100.00;100592.97;4977918;28;20030;-73
2021/01/28 12:57:40;;;;;;;37.15;24.25;;;;;;;3.83;100.00;100601.13;4977838;28;20031;-72
2021/01/28 13:00:27;;;;;;;41.58;24.95;;;;;;;3.31;100.00;100589.47;4977133;28;20045;-72
2021/01/28 13:03:13;;;;;;;39.85;24.48;;;;;;;3.38;100.00;100595.56;4976604;28;20037;-72
2021/01/28 13:05:58;;;;;;;37.75;24.38;;;;;;;3.46;100.00;100597.34;4977177;28;20370;-73
2021/01/28 13:08:44;;;;;;;37.08;24.27;;;;;;;3.75;100.00;100597.63;4976600;28;20459;-72
2021/01/28 13:11:31;;;;;;;35.35;23.60;;;;;;;3.98;100.00;100602.09;4963808;28;20026;-72
2021/01/28 13:14:17;;;;;;;36.67;23.52;;;;;;;4.29;100.00;100596.28;4976671;28;20062;-72
2021/01/28 13:17:02;;;;;;;36.20;23.50;;;;;;;3.71;100.00;100588.97;4976718;28;20108;-72
2021/01/28 13:19:51;;;;;;;34.90;22.92;;;;;;;3.83;100.00;100590.78;4977459;28;20459;-72
2021/01/28 13:22:38;;;;;;;35.67;23.05;;;;;;;3.79;100.00;100600.25;4963979;28;20031;-72
2021/01/28 13:25:24;;;;;;;34.65;22.50;;;;;;;3.71;100.00;100599.34;4964056;28;20019;-72
2021/01/28 13:28:09;;;;;;;34.75;21.55;;;;;;;3.54;100.00;100587.94;4976285;28;20443;-72
2021/01/28 13:30:56;;;;;;;34.00;22.15;;;;;;;4.00;100.00;100594.34;4977621;28;20045;-72
2021/01/28 13:33:41;;;;;;;34.40;22.05;;;;;;;3.41;100.00;100582.63;4961809;28;20038;-73
2021/01/28 13:36:27;;;;;;;32.08;21.13;;;;;;;3.87;100.00;100595.13;4976936;28;20046;-72
2021/01/28 13:39:13;;;;;;;35.75;22.45;;;;;;;3.65;100.00;100583.72;4976069;28;20416;-72
2021/01/28 13:41:59;;;;;;;32.42;21.27;;;;;;;3.78;100.00;100585.53;4976378;28;20046;-72
2021/01/28 13:44:45;;;;;;;32.47;21.73;;;;;;;3.63;100.00;100587.16;4975850;28;20074;-72
2021/01/28 13:47:30;;;;;;;34.03;20.80;;;;;;;3.49;100.00;100591.34;4976417;28;20019;-73
2021/01/28 13:50:22;;;;;;;34.00;21.92;;;;;;;3.63;100.00;100584.56;4976508;28;20038;-72
2021/01/28 13:53:08;;;;;;;30.10;20.42;;;;;;;3.12;100.00;100587.56;4975912;28;20026;-72
2021/01/28 13:55:54;;;;;;;28.67;19.65;;;;;;;3.35;100.00;100580.88;4975963;28;20045;-71
2021/01/28 13:58:40;;;;;;;30.60;19.52;;;;;;;2.63;100.00;100594.75;4975206;28;20041;-72
2021/01/28 14:01:26;;;;;;;32.17;20.63;;;;;;;3.01;100.00;100596.91;4976705;28;20038;-72
2021/01/28 14:04:11;;;;;;;33.30;19.65;;;;;;;2.98;100.00;100591.69;4975649;28;20494;-73
2021/01/28 14:06:58;;;;;;;31.55;19.15;;;;;;;3.03;100.00;100579.69;4976524;28;20054;-72
2021/01/28 14:09:44;;;;;;;27.40;18.00;;;;;;;3.18;100.00;100579.84;4962443;28;20030;-72
2021/01/28 14:12:29;;;;;;;30.20;18.95;;;;;;;3.25;100.00;100578.16;4976339;28;20050;-73
2021/01/28 14:15:18;;;;;;;29.42;18.83;;;;;;;2.92;100.00;100580.41;4976484;28;20106;-73
2021/01/28 14:18:06;;;;;;;29.98;17.98;;;;;;;2.81;100.00;100571.69;4975944;28;20341;-73
2021/01/28 14:20:51;;;;;;;29.88;18.08;;;;;;;2.80;100.00;100581.16;4976416;28;20073;-73
2021/01/28 14:23:37;;;;;;;27.20;17.70;;;;;;;2.86;100.00;100573.44;4977307;28;20455;-73
2021/01/28 14:26:23;;;;;;;29.27;18.40;;;;;;;2.91;100.00;100581.28;4975266;28;20371;-73
2021/01/28 14:29:09;;;;;;;26.50;17.90;;;;;;;3.10;100.00;100583.22;4975596;28;20026;-72
2021/01/28 14:31:55;;;;;;;29.23;18.75;;;;;;;3.13;100.00;100571.16;4975645;28;20062;-73
2021/01/28 14:34:41;;;;;;;28.52;17.40;;;;;;;2.90;100.00;100580.41;4975834;28;20033;-73
2021/01/28 14:37:27;;;;;;;25.77;16.70;;;;;;;2.83;100.00;100576.03;4975999;28;20094;-73
2021/01/28 14:40:15;;;;;;;25.02;16.77;;;;;;;2.92;100.00;100576.13;4976187;28;20056;-72
2021/01/28 14:43:00;;;;;;;26.02;16.30;;;;;;;2.91;100.00;100576.97;4975427;28;20026;-73
2021/01/28 14:45:46;;;;;;;24.90;15.85;;;;;;;2.56;100.00;100570.53;4975576;28;20034;-72
2021/01/28 14:48:34;;;;;;;23.50;15.10;;;;;;;2.76;100.00;100570.75;4976011;28;20459;-72
2021/01/28 14:51:19;;;;;;;22.77;14.98;;;;;;;2.46;100.00;100581.63;4961731;28;20030;-72
2021/01/28 14:54:05;;;;;;;22.00;15.02;;;;;;;2.50;100.00;100583.41;4975349;28;20039;-73
2021/01/28 14:56:51;;;;;;;26.85;16.65;;;;;;;2.57;100.00;100572.25;4961725;28;20034;-73
2021/01/28 14:59:37;;;;;;;27.98;16.90;;;;;;;2.55;100.00;100579.16;4962529;28;20033;-73
2021/01/28 15:02:23;;;;;;;25.90;16.27;;;;;;;2.45;100.00;100586.78;4974746;28;20034;-73
2021/01/28 15:05:10;;;;;;;24.98;16.08;;;;;;;2.36;100.00;100582.34;4974966;28;20023;-74
2021/01/28 15:07:56;;;;;;;25.52;15.65;;;;;;;2.35;100.00;100600.41;4975098;28;20551;-73
2021/01/28 15:10:42;;;;;;;24.80;16.52;;;;;;;2.36;100.00;100591.78;4977211;28;20448;-73
2021/01/28 15:13:28;;;;;;;26.48;15.63;;;;;;;2.12;100.00;100589.75;4966131;28;20142;-73
2021/01/28 15:16:13;;;;;;;23.25;15.15;;;;;;;2.54;100.00;100594.63;4978514;28;20471;-72
2021/01/28 15:18:59;;;;;;;25.58;16.85;;;;;;;2.12;100.00;100588.88;4979319;28;20034;-73
2021/01/28 15:21:46;;;;;;;26.30;15.70;;;;;;;2.09;100.00;100591.44;4978408;28;20042;-73
2021/01/28 15:24:32;;;;;;;23.88;16.13;;;;;;;2.11;100.00;100587.16;4966575;28;20039;-73
2021/01/28 15:27:18;;;;;;;23.48;15.63;;;;;;;2.32;100.00;100587.44;4978880;28;20037;-73
2021/01/28 15:30:08;;;;;;;23.73;15.98;;;;;;;2.42;100.00;100586.72;4979813;28;20415;-74
2021/01/28 15:32:54;;;;;;;21.75;14.45;;;;;;;2.20;100.00;100588.16;4978265;28;20031;-73
2021/01/28 15:35:39;;;;;;;20.58;14.20;;;;;;;2.39;100.00;100582.38;4980230;28;20030;-73
2021/01/28 15:38:25;;;;;;;22.00;15.20;;;;;;;2.32;100.00;100590.91;4978505;28;20114;-73
2021/01/28 15:41:12;;;;;;;20.38;13.85;;;;;;;2.47;100.00;100593.69;4978572;28;20320;-74
2021/01/28 15:43:58;;;;;;;25.58;15.35;;;;;;;2.64;100.00;100591.28;4978453;28;20427;-73
2021/01/28 15:46:44;;;;;;;22.67;13.60;;;;;;;2.30;100.00;100591.72;4965683;28;20023;-74
2021/01/28 15:49:30;;;;;;;21.10;13.77;;;;;;;2.44;100.00;100595.34;4980510;28;20045;-72
2021/01/28 15:52:16;;;;;;;23.40;14.57;;;;;;;2.61;100.00;100597.31;4980006;28;20086;-72
2021/01/28 15:55:04;;;;;;;21.02;13.10;;;;;;;2.75;100.00;100602.66;4965723;28;20077;-74
2021/01/28 15:57:50;;;;;;;20.70;13.25;;;;;;;2.47;100.00;100609.22;4965568;28;20030;-73
2021/01/28 16:00:38;;;;;;;21.10;12.73;;;;;;;2.43;100.00;100607.44;4967075;28;20030;-73
2021/01/28 16:03:24;;;;;;;21.65;12.90;;;;;;;2.37;100.00;100602.16;4965009;28;20031;-73
2021/01/28 16:06:10;;;;;;;18.42;12.38;;;;;;;2.70;100.00;100600.00;4965778;28;20049;-73
2021/01/28 16:08:56;;;;;;;19.73;12.57;;;;;;;2.78;100.00;100608.72;4980627;28;20353;-73
2021/01/28 16:11:42;;;;;;;24.10;14.13;;;;;;;2.52;100.00;100604.06;4966049;28;20078;-74
2021/01/28 16:14:27;;;;;;;24.45;16.85;;;;;;;2.77;100.00;100617.34;4977811;28;20386;-75
2021/01/28 16:17:13;;;;;;;25.00;16.48;;;;;;;2.57;100.00;100618.81;4977632;28;20053;-73
2021/01/28 16:19:59;;;;;;;26.30;16.80;;;;;;;2.43;100.00;100622.06;4977579;28;20031;-73
2021/01/28 16:22:45;;;;;;;27.00;16.20;;;;;;;2.80;100.00;100621.66;4978481;28;20027;-73
2021/01/28 16:25:31;;;;;;;31.02;18.02;;;;;;;2.51;100.00;100620.44;4977588;28;20038;-73
2021/01/28 16:28:17;;;;;;;20.88;13.85;;;;;;;2.53;100.00;100627.38;4977428;28;20027;-73
2021/01/28 16:31:03;;;;;;;21.02;13.85;;;;;;;2.55;100.00;100615.34;4977919;28;20037;-74
2021/01/28 16:33:49;;;;;;;18.40;12.05;;;;;;;2.58;100.00;100619.69;4977682;28;20110;-74
2021/01/28 16:36:35;;;;;;;21.27;14.43;;;;;;;2.57;100.00;100623.13;4978966;28;20031;-74
2021/01/28 16:39:20;;;;;;;19.20;13.00;;;;;;;2.95;100.00;100620.16;4977073;28;20026;-75
2021/01/28 16:42:06;;;;;;;18.90;13.18;;;;;;;2.34;100.00;100620.25;4977667;28;20069;-74
2021/01/28 16:44:54;;;;;;;21.38;13.05;;;;;;;2.55;100.00;100619.63;4977122;28;20055;-74
2021/01/28 16:47:40;;;;;;;15.85;10.95;;;;;;;2.41;100.00;100610.84;4964616;28;20051;-73
2021/01/28 16:50:36;;;;;;;17.98;11.88;;;;;;;2.27;100.00;100627.88;4977024;28;20459;-74
2021/01/28 16:53:22;;;;;;;19.33;11.75;;;;;;;2.61;100.00;100619.72;4977127;28;20045;-72
2021/01/28 16:56:07;;;;;;;17.38;11.43;;;;;;;2.47;100.00;100621.25;4977083;28;20474;-73
2021/01/28 16:58:53;;;;;;;17.42;11.85;;;;;;;2.79;100.00;100619.94;4976973;28;20027;-72
2021/01/28 17:01:39;;;;;;;18.27;12.75;;;;;;;2.72;100.00;100628.47;4977157;28;20066;-72
2021/01/28 17:04:26;;;;;;;19.58;13.07;;;;;;;2.70;100.00;100622.44;4977201;28;20460;-73
2021/01/28 17:07:14;;;;;;;15.82;11.18;;;;;;;2.88;100.00;100614.88;4976984;28;20045;-72
2021/01/28 17:09:59;;;;;;;18.45;11.30;;;;;;;2.67;100.00;100618.09;4962579;28;20098;-74
2021/01/28 17:12:46;;;;;;;16.75;10.85;;;;;;;2.53;100.00;100617.03;4978097;28;20073;-73
2021/01/28 17:15:31;;;;;;;18.40;11.88;;;;;;;2.68;100.00;100617.22;4977121;28;20031;-73
2021/01/28 17:18:17;;;;;;;17.15;11.23;;;;;;;2.55;100.00;100617.94;4977179;28;20122;-73
2021/01/28 17:21:03;;;;;;;16.40;11.88;;;;;;;2.73;100.00;100615.56;4976267;28;20029;-74
2021/01/28 17:23:49;;;;;;;21.02;13.30;;;;;;;2.71;100.00;100614.69;4963854;28;20026;-73
2021/01/28 17:26:35;;;;;;;21.95;14.57;;;;;;;2.55;100.00;100610.19;4976260;28;20059;-73
2021/01/28 17:29:20;;;;;;;17.77;11.63;;;;;;;2.39;100.00;100615.09;4977186;28;20087;-74
2021/01/28 17:32:09;;;;;;;21.40;12.68;;;;;;;2.69;100.00;100605.19;4980046;28;20027;-73
2021/01/28 17:34:55;;;;;;;18.08;11.88;;;;;;;2.21;100.00;100604.53;4962216;28;20041;-73
2021/01/28 17:37:41;;;;;;;17.30;11.88;;;;;;;2.44;100.00;100604.00;4976464;28;20138;-74
2021/01/28 17:40:28;;;;;;;18.30;12.30;;;;;;;2.71;100.00;100612.09;4963394;28;20031;-74
2021/01/28 17:43:13;;;;;;;18.00;10.68;;;;;;;2.49;100.00;100606.66;4976765;28;20026;-73
2021/01/28 17:45:59;;;;;;;15.40;10.75;;;;;;;2.67;100.00;100607.75;4976172;28;20034;-73
2021/01/28 17:48:45;;;;;;;16.75;11.18;;;;;;;2.34;100.00;100612.50;4976196;28;20110;-72
2021/01/28 17:51:31;;;;;;;16.17;10.38;;;;;;;2.53;100.00;100604.09;4962910;28;20535;-74
2021/01/28 17:54:17;;;;;;;16.75;11.13;;;;;;;2.56;100.00;100605.84;4976407;28;20062;-74
2021/01/28 17:57:02;;;;;;;16.67;10.95;;;;;;;2.42;100.00;100610.00;4962925;28;20031;-73
2021/01/28 17:59:48;;;;;;;17.25;11.35;;;;;;;2.29;100.00;100611.53;4976630;28;20031;-77
2021/01/28 18:02:34;;;;;;;17.33;10.63;;;;;;;2.39;100.00;100612.53;4975709;28;20030;-76
2021/01/28 18:05:22;;;;;;;17.90;10.32;;;;;;;2.37;100.00;100604.75;4961763;28;20059;-74
2021/01/28 18:08:08;;;;;;;17.42;11.20;;;;;;;2.43;100.00;100593.63;4963007;28;20027;-73
2021/01/28 18:10:54;;;;;;;16.92;10.90;;;;;;;2.32;100.00;100605.53;4975669;28;20026;-75
2021/01/28 18:13:39;;;;;;;17.50;11.20;;;;;;;2.38;100.00;100595.28;4976956;28;20047;-75
2021/01/28 18:16:25;;;;;;;15.02;10.52;;;;;;;2.28;100.00;100589.13;4975953;28;20440;-74
2021/01/28 18:19:11;;;;;;;15.20;9.57;;;;;;;2.44;100.00;100591.06;4975798;28;20042;-74
2021/01/28 18:21:57;;;;;;;15.30;10.43;;;;;;;2.53;100.00;100593.75;4975805;28;20042;-73
2021/01/28 18:24:43;;;;;;;16.48;10.43;;;;;;;2.62;100.00;100590.44;4976625;28;20026;-74
2021/01/28 18:27:29;;;;;;;17.02;10.45;;;;;;;2.44;100.00;100595.34;4974988;28;20033;-74
2021/01/28 18:30:15;;;;;;;15.57;10.13;;;;;;;2.20;100.00;100590.72;4976649;28;20333;-75
2021/01/28 18:33:04;;;;;;;13.80;9.75;;;;;;;2.45;100.00;100603.13;4974887;28;20117;-73
2021/01/28 18:35:50;;;;;;;14.52;9.32;;;;;;;2.22;100.00;100609.72;4975959;28;20056;-74
2021/01/28 18:38:37;;;;;;;14.45;9.48;;;;;;;2.25;100.00;100603.72;4976116;28;20058;-73
2021/01/28 18:41:23;;;;;;;13.65;8.88;;;;;;;2.43;100.00;100598.78;4976664;28;20437;-73
2021/01/28 18:44:09;;;;;;;14.57;9.60;;;;;;;2.13;100.00;100595.81;4975881;28;20026;-74
2021/01/28 18:46:57;;;;;;;15.00;9.77;;;;;;;2.25;100.00;100604.59;4962970;28;20400;-74